Zim Panama — VSWW5 — position and weather

sailwx.info

Track history (hours):
 
Tides and Currents Weather Stations Pressure Air Temp Water Temp Dewpoint Dewpoint Depression Visibility Wind Speed Wind Dir Waves Ship Positions

Zim Panama

Last reported at 2015-Jan-21 17:24 UTC. Time now 2015-Jan-26 12:34 UTC.
Position N 40°25' W 069°16'.

Length 294.12 m; beam 32.2 m; draft 9.45 m.

Type: Ship (hazmat cat C). MMSI: 235474000.

Date/timePositionNaut miles runAvg speedWind from/ knotsBaromVisibWave heightAir tempDewpointWater temp
2015-Jan-21 17:24N 40°25' W 069°16'1618.5
2015-Jan-21 16:33N 40°25' W 069°36'3818.3
2015-Jan-21 14:29N 40°24' W 070°26'1617.4
2015-Jan-21 13:33N 40°24' W 070°47'1817.8
2015-Jan-21 12:33N 40°24' W 071°10'1817.7
2015-Jan-21 11:33N 40°23' W 071°34'1717.6
2015-Jan-21 10:34N 40°23' W 071°57'1817.4
2015-Jan-21 09:33N 40°23' W 072°20'1717.3
2015-Jan-21 08:33N 40°23' W 072°42'2017.3
2015-Jan-21 07:25N 40°22' W 073°08'1716.2
2015-Jan-21 06:20N 40°24' W 073°31'8 9.8
2015-Jan-21 05:31N 40°26' W 073°41'9 9.1
2015-Jan-21 04:33N 40°28' W 073°52'1212.2
2015-Jan-21 03:33N 40°37' W 074°03'5 4.9
2015-Jan-21 02:33N 40°40' W 074°08'1 0.1
2015-Jan-20 16:28N 40°41' W 074°09'0 0.0
2015-Jan-20 15:28N 40°41' W 074°09'0 0.0
2015-Jan-20 13:16N 40°41' W 074°09'0 0.0
2015-Jan-20 12:28N 40°41' W 074°09'0 0.0
2015-Jan-20 11:22N 40°41' W 074°09'0 0.0
2015-Jan-20 07:22N 40°41' W 074°09'0 0.0
2015-Jan-20 06:22N 40°41' W 074°09'0 0.0
2015-Jan-20 05:28N 40°41' W 074°09'0 0.0
2015-Jan-20 04:22N 40°41' W 074°09'0 0.0
2015-Jan-20 03:28N 40°41' W 074°09'0 0.0
2015-Jan-20 02:17N 40°41' W 074°09'0 0.0
2015-Jan-19 21:28N 40°41' W 074°09'3 2.8
2015-Jan-19 20:33N 40°39' W 074°08'7 6.9
2015-Jan-19 19:33N 40°34' W 074°02'15 9.7
2015-Jan-19 18:03N 40°24' W 073°47'4011.2
2015-Jan-19 14:29N 39°44' W 073°42'1817.4
2015-Jan-19 13:27N 39°27' W 073°48'140 4.3
2015-Jan-18 04:33N 38°03' W 076°13'5716.6
2015-Jan-18 01:06N 38°60' W 076°23'1013.0
2015-Jan-18 00:21N 39°09' W 076°25'7 8.9
2015-Jan-17 23:33N 39°14' W 076°32'2 1.6
2015-Jan-17 22:33N 39°15' W 076°33'0 0.0
2015-Jan-17 21:33N 39°15' W 076°33'0 0.0
2015-Jan-17 20:33N 39°15' W 076°33'0 0.0
2015-Jan-17 19:33N 39°15' W 076°33'0 0.0
2015-Jan-17 18:33N 39°15' W 076°33'0 0.0
2015-Jan-17 17:33N 39°15' W 076°33'0 0.0
2015-Jan-17 16:33N 39°15' W 076°33'0 0.0
2015-Jan-17 15:33N 39°15' W 076°33'0 0.0
2015-Jan-17 14:33N 39°15' W 076°33'0 0.0
2015-Jan-17 13:33N 39°15' W 076°33'0 0.0
2015-Jan-17 12:33N 39°15' W 076°33'0 0.0
2015-Jan-17 11:33N 39°15' W 076°33'0 0.0
2015-Jan-17 10:33N 39°15' W 076°33'0 0.0
2015-Jan-17 09:33N 39°15' W 076°33'5 5.3
2015-Jan-17 08:33N 39°11' W 076°28'1111.0
2015-Jan-17 07:34N 39°01' W 076°23'5416.4
2015-Jan-17 04:15N 38°08' W 076°13'1216.8
2015-Jan-17 03:32N 37°56' W 076°09'196 4.0
2015-Jan-15 03:04N 39°18' W 072°22'1018.9
2015-Jan-15 02:32N 39°22' W 072°10'2518.8
2015-Jan-15 01:12N 39°33' W 071°41'1218.8
2015-Jan-15 00:33N 39°38' W 071°26'1919.0
2015-Jan-14 23:32N 39°46' W 071°04'1919.0
2015-Jan-14 22:33N 39°53' W 070°41'2119.1
2015-Jan-14 21:27N 40°02' W 070°16'2019.8
2015-Jan-14 20:27N 40°11' W 069°53'1920.0
2015-Jan-14 19:30N 40°19' W 069°31'10616.7
2015-Jan-14 13:11N 42°03' W 069°53'3217.5
2015-Jan-14 11:21N 42°19' W 070°30'1518.3
2015-Jan-14 10:34N 42°23' W 070°49'9 8.7
2015-Jan-14 09:33N 42°20' W 071°01'0 0.4
2015-Jan-14 08:33N 42°21' W 071°01'0 0.0
2015-Jan-14 07:33N 42°21' W 071°01'0 0.0
2015-Jan-14 06:30N 42°21' W 071°01'0 0.0
2015-Jan-14 02:06N 42°21' W 071°01'82 8.3
2015-Jan-13 16:15N 41°35' W 069°29'5218.1
2015-Jan-13 13:23N 40°49' W 068°59'1416.7
2015-Jan-13 12:33N 40°36' W 069°08'1815.9
2015-Jan-13 11:26N 40°25' W 069°25'3417.3
2015-Jan-13 09:30N 40°24' W 070°10'7118.0
2015-Jan-13 05:33N 40°23' W 071°43'1818.3
2015-Jan-13 04:33N 40°23' W 072°07'2618.2
2015-Jan-13 03:09N 40°23' W 072°40'1118.4
2015-Jan-13 02:34N 40°23' W 072°55'1918.5
2015-Jan-13 01:33N 40°23' W 073°19'1413.3
2015-Jan-13 00:30N 40°25' W 073°37'10 9.8
2015-Jan-12 23:29N 40°27' W 073°50'1011.1
2015-Jan-12 22:33N 40°32' W 074°02'9 8.5
2015-Jan-12 21:33N 40°39' W 074°09'2 0.7
2015-Jan-12 18:08N 40°41' W 074°09'0 0.0
2015-Jan-12 16:26N 40°41' W 074°09'0 0.0
2015-Jan-12 08:08N 40°41' W 074°09'0 0.0
2015-Jan-12 07:32N 40°41' W 074°09'0 0.0
2015-Jan-12 06:32N 40°41' W 074°09'0 0.0
2015-Jan-12 02:32N 40°41' W 074°09'0 0.0
2015-Jan-11 20:33N 40°41' W 074°09'3 3.0
2015-Jan-11 19:33N 40°39' W 074°06'5 5.0
2015-Jan-11 18:34N 40°35' W 074°02'  
Track history (hours):
 
Tides and Currents Weather Stations Pressure Air Temp Water Temp Dewpoint Dewpoint Depression Visibility Wind Speed Wind Dir Waves Ship Positions

Zim Panama

Last reported at 2015-Jan-21 17:24 UTC. Time now 2015-Jan-26 12:34 UTC.
Position N 40°25' W 069°16'.

Length 294.12 m; beam 32.2 m; draft 9.45 m.

Type: Ship (hazmat cat C). MMSI: 235474000.

Date/timePositionNaut miles runAvg speedWind from/ knotsBaromVisibWave heightAir tempDewpointWater temp
2015-Jan-21 17:24N 40°25' W 069°16'1618.5
2015-Jan-21 16:33N 40°25' W 069°36'3818.3
2015-Jan-21 14:29N 40°24' W 070°26'1617.4
2015-Jan-21 13:33N 40°24' W 070°47'1817.8
2015-Jan-21 12:33N 40°24' W 071°10'1817.7
2015-Jan-21 11:33N 40°23' W 071°34'1717.6
2015-Jan-21 10:34N 40°23' W 071°57'1817.4
2015-Jan-21 09:33N 40°23' W 072°20'1717.3
2015-Jan-21 08:33N 40°23' W 072°42'2017.3
2015-Jan-21 07:25N 40°22' W 073°08'1716.2
2015-Jan-21 06:20N 40°24' W 073°31'8 9.8
2015-Jan-21 05:31N 40°26' W 073°41'9 9.1
2015-Jan-21 04:33N 40°28' W 073°52'1212.2
2015-Jan-21 03:33N 40°37' W 074°03'5 4.9
2015-Jan-21 02:33N 40°40' W 074°08'1 0.1
2015-Jan-20 16:28N 40°41' W 074°09'0 0.0
2015-Jan-20 15:28N 40°41' W 074°09'0 0.0
2015-Jan-20 13:16N 40°41' W 074°09'0 0.0
2015-Jan-20 12:28N 40°41' W 074°09'0 0.0
2015-Jan-20 11:22N 40°41' W 074°09'0 0.0
2015-Jan-20 07:22N 40°41' W 074°09'0 0.0
2015-Jan-20 06:22N 40°41' W 074°09'0 0.0
2015-Jan-20 05:28N 40°41' W 074°09'0 0.0
2015-Jan-20 04:22N 40°41' W 074°09'0 0.0
2015-Jan-20 03:28N 40°41' W 074°09'0 0.0
2015-Jan-20 02:17N 40°41' W 074°09'0 0.0
2015-Jan-19 21:28N 40°41' W 074°09'3 2.8
2015-Jan-19 20:33N 40°39' W 074°08'7 6.9
2015-Jan-19 19:33N 40°34' W 074°02'15 9.7
2015-Jan-19 18:03N 40°24' W 073°47'4011.2
2015-Jan-19 14:29N 39°44' W 073°42'1817.4
2015-Jan-19 13:27N 39°27' W 073°48'140 4.3
2015-Jan-18 04:33N 38°03' W 076°13'5716.6
2015-Jan-18 01:06N 38°60' W 076°23'1013.0
2015-Jan-18 00:21N 39°09' W 076°25'7 8.9
2015-Jan-17 23:33N 39°14' W 076°32'2 1.6
2015-Jan-17 22:33N 39°15' W 076°33'0 0.0
2015-Jan-17 21:33N 39°15' W 076°33'0 0.0
2015-Jan-17 20:33N 39°15' W 076°33'0 0.0
2015-Jan-17 19:33N 39°15' W 076°33'0 0.0
2015-Jan-17 18:33N 39°15' W 076°33'0 0.0
2015-Jan-17 17:33N 39°15' W 076°33'0 0.0
2015-Jan-17 16:33N 39°15' W 076°33'0 0.0
2015-Jan-17 15:33N 39°15' W 076°33'0 0.0
2015-Jan-17 14:33N 39°15' W 076°33'0 0.0
2015-Jan-17 13:33N 39°15' W 076°33'0 0.0
2015-Jan-17 12:33N 39°15' W 076°33'0 0.0
2015-Jan-17 11:33N 39°15' W 076°33'0 0.0
2015-Jan-17 10:33N 39°15' W 076°33'0 0.0
2015-Jan-17 09:33N 39°15' W 076°33'5 5.3
2015-Jan-17 08:33N 39°11' W 076°28'1111.0
2015-Jan-17 07:34N 39°01' W 076°23'5416.4
2015-Jan-17 04:15N 38°08' W 076°13'1216.8
2015-Jan-17 03:32N 37°56' W 076°09'196 4.0
2015-Jan-15 03:04N 39°18' W 072°22'1018.9
2015-Jan-15 02:32N 39°22' W 072°10'2518.8
2015-Jan-15 01:12N 39°33' W 071°41'1218.8
2015-Jan-15 00:33N 39°38' W 071°26'1919.0
2015-Jan-14 23:32N 39°46' W 071°04'1919.0
2015-Jan-14 22:33N 39°53' W 070°41'2119.1
2015-Jan-14 21:27N 40°02' W 070°16'2019.8
2015-Jan-14 20:27N 40°11' W 069°53'1920.0
2015-Jan-14 19:30N 40°19' W 069°31'10616.7
2015-Jan-14 13:11N 42°03' W 069°53'3217.5
2015-Jan-14 11:21N 42°19' W 070°30'1518.3
2015-Jan-14 10:34N 42°23' W 070°49'9 8.7
2015-Jan-14 09:33N 42°20' W 071°01'0 0.4
2015-Jan-14 08:33N 42°21' W 071°01'0 0.0
2015-Jan-14 07:33N 42°21' W 071°01'0 0.0
2015-Jan-14 06:30N 42°21' W 071°01'0 0.0
2015-Jan-14 02:06N 42°21' W 071°01'82 8.3
2015-Jan-13 16:15N 41°35' W 069°29'5218.1
2015-Jan-13 13:23N 40°49' W 068°59'1416.7
2015-Jan-13 12:33N 40°36' W 069°08'1815.9
2015-Jan-13 11:26N 40°25' W 069°25'3417.3
2015-Jan-13 09:30N 40°24' W 070°10'7118.0
2015-Jan-13 05:33N 40°23' W 071°43'1818.3
2015-Jan-13 04:33N 40°23' W 072°07'2618.2
2015-Jan-13 03:09N 40°23' W 072°40'1118.4
2015-Jan-13 02:34N 40°23' W 072°55'1918.5
2015-Jan-13 01:33N 40°23' W 073°19'1413.3
2015-Jan-13 00:30N 40°25' W 073°37'10 9.8
2015-Jan-12 23:29N 40°27' W 073°50'1011.1
2015-Jan-12 22:33N 40°32' W 074°02'9 8.5
2015-Jan-12 21:33N 40°39' W 074°09'2 0.7
2015-Jan-12 18:08N 40°41' W 074°09'0 0.0
2015-Jan-12 16:26N 40°41' W 074°09'0 0.0
2015-Jan-12 08:08N 40°41' W 074°09'0 0.0
2015-Jan-12 07:32N 40°41' W 074°09'0 0.0
2015-Jan-12 06:32N 40°41' W 074°09'0 0.0
2015-Jan-12 02:32N 40°41' W 074°09'0 0.0
2015-Jan-11 20:33N 40°41' W 074°09'3 3.0
2015-Jan-11 19:33N 40°39' W 074°06'5 5.0
2015-Jan-11 18:34N 40°35' W 074°02'  

Dump ship's entire track history